Time;durP1;ratioP1;P1;durP2;ratioP2;P2;SDS_P1;SDS_P2;PMS_P1;PMS_P2;Temp;Humidity;BMP_temperature;BMP_pressure;BME280_temperature;BME280_humidity;BME280_pressure;Samples;Min_cycle;Max_cycle;Signal;HPM_P1;HPM_P2
2023/07/20 00:01:53;;;;;;;;;8.00;8.00;;;;;24.34;48.43;100224.83;109569;1254;18691;-36
2023/07/20 00:04:20;;;;;;;;;11.00;11.00;;;;;24.35;48.48;100224.27;109582;1254;19994;-35
2023/07/20 00:06:48;;;;;;;;;10.00;9.00;;;;;24.35;48.26;100227.45;109602;1253;19339;-35
2023/07/20 00:09:15;;;;;;;;;9.00;8.50;;;;;24.35;48.35;100229.16;109561;1254;19512;-36
2023/07/20 00:11:43;;;;;;;;;8.00;8.00;;;;;24.37;48.11;100227.17;109582;1253;19915;-35
2023/07/20 00:14:10;;;;;;;;;8.00;8.00;;;;;24.37;48.42;100221.92;109608;1268;19853;-35
2023/07/20 00:16:37;;;;;;;;;11.00;9.50;;;;;24.37;48.14;100221.33;109612;1254;19321;-36
2023/07/20 00:19:06;;;;;;;;;11.00;10.00;;;;;24.36;48.17;100225.34;109497;1253;136311;-36
2023/07/20 00:21:34;;;;;;;;;8.00;8.00;;;;;24.35;48.34;100230.13;109578;1254;20076;-35
2023/07/20 00:24:01;;;;;;;;;10.00;9.00;;;;;24.35;48.39;100230.95;109624;1253;22071;-36
2023/07/20 00:26:29;;;;;;;;;8.00;8.00;;;;;24.35;48.28;100224.77;109585;1268;18498;-36
2023/07/20 00:28:56;;;;;;;;;8.00;7.00;;;;;24.36;48.15;100222.72;109576;1254;21849;-36
2023/07/20 00:31:23;;;;;;;;;13.00;10.00;;;;;24.33;48.17;100223.86;109599;1268;17921;-35
2023/07/20 00:33:51;;;;;;;;;8.00;7.50;;;;;24.33;48.32;100229.67;109613;1253;18807;-36
2023/07/20 00:36:18;;;;;;;;;8.00;8.00;;;;;24.32;48.35;100232.05;109584;1254;20050;-36
2023/07/20 00:38:46;;;;;;;;;7.00;7.00;;;;;24.33;48.15;100228.35;109561;1253;20108;-35
2023/07/20 00:41:14;;;;;;;;;8.00;7.00;;;;;24.33;48.03;100228.97;109521;1260;19858;-36
2023/07/20 00:43:41;;;;;;;;;10.00;8.00;;;;;24.33;47.97;100222.60;109623;1253;21770;-35
2023/07/20 00:46:09;;;;;;;;;8.00;8.00;;;;;24.33;48.07;100222.66;109557;1268;18107;-36
2023/07/20 00:48:36;;;;;;;;;7.00;7.00;;;;;24.31;47.91;100222.70;109602;1253;22301;-37
2023/07/20 00:51:04;;;;;;;;;7.00;7.00;;;;;24.31;47.70;100223.70;109636;1254;19662;-36
2023/07/20 00:53:31;;;;;;;;;7.00;7.00;;;;;24.33;47.78;100226.07;109608;1254;17788;-36
2023/07/20 00:55:58;;;;;;;;;10.00;10.00;;;;;24.30;47.96;100231.11;109597;1268;18538;-36
2023/07/20 00:58:26;;;;;;;;;11.00;8.00;;;;;24.29;47.70;100233.21;109563;1253;19613;-36
2023/07/20 01:00:53;;;;;;;;;8.00;8.00;;;;;24.30;47.77;100232.16;109592;1254;19693;-36
2023/07/20 01:03:21;;;;;;;;;10.00;9.00;;;;;24.30;47.80;100231.66;109586;1253;21636;-35
2023/07/20 01:05:48;;;;;;;;;8.00;8.00;;;;;24.29;47.94;100227.58;109607;1268;18251;-35
2023/07/20 01:08:15;;;;;;;;;15.00;14.00;;;;;24.31;47.82;100224.57;109570;1254;21959;-35
2023/07/20 01:10:43;;;;;;;;;15.00;15.00;;;;;24.20;47.87;100229.17;109572;1254;19957;-36
2023/07/20 01:13:10;;;;;;;;;15.00;15.00;;;;;24.04;48.28;100230.47;109600;1269;19276;-35
2023/07/20 01:15:38;;;;;;;;;20.00;18.00;;;;;23.90;48.74;100225.45;109549;1255;19576;-36
2023/07/20 01:18:05;;;;;;;;;15.00;15.00;;;;;23.81;48.87;100221.19;109586;1254;20042;-36
2023/07/20 01:20:33;;;;;;;;;18.00;18.00;;;;;23.75;49.49;100224.42;109547;1269;18636;-36
2023/07/20 01:23:00;;;;;;;;;18.00;16.00;;;;;23.68;49.55;100226.46;109707;1269;19614;-36
2023/07/20 01:25:28;;;;;;;;;17.00;15.00;;;;;23.62;49.83;100226.92;109700;1268;18573;-35
2023/07/20 01:27:55;;;;;;;;;19.00;18.00;;;;;23.58;49.63;100223.85;109695;1268;18606;-36
2023/07/20 01:30:22;;;;;;;;;17.50;17.50;;;;;23.54;50.08;100223.76;109609;1253;21419;-35
2023/07/20 01:32:50;;;;;;;;;17.00;17.00;;;;;23.54;49.97;100223.98;109576;1268;18841;-36
2023/07/20 01:35:17;;;;;;;;;17.00;17.00;;;;;23.48;50.17;100221.44;109561;1268;22003;-36
2023/07/20 01:37:45;;;;;;;;;17.00;17.00;;;;;23.46;50.30;100225.09;109579;1268;18097;-36
2023/07/20 01:40:12;;;;;;;;;21.00;19.00;;;;;23.45;50.22;100231.12;109600;1262;19916;-35
2023/07/20 01:42:39;;;;;;;;;17.00;17.00;;;;;23.43;50.51;100237.55;109564;1253;20368;-36
2023/07/20 01:45:07;;;;;;;;;15.00;15.00;;;;;23.35;50.72;100242.73;109633;1268;22685;-36
2023/07/20 01:47:34;;;;;;;;;18.00;18.00;;;;;23.35;50.73;100243.88;109596;1254;20174;-34
2023/07/20 01:50:02;;;;;;;;;19.00;17.00;;;;;23.34;50.68;100238.26;109596;1253;20018;-35
2023/07/20 01:52:29;;;;;;;;;18.00;17.00;;;;;23.31;50.64;100232.25;109596;1268;18079;-36
2023/07/20 01:54:57;;;;;;;;;17.00;17.00;;;;;23.28;50.66;100240.00;109584;1253;19965;-35
2023/07/20 01:57:24;;;;;;;;;21.00;19.00;;;;;23.24;50.99;100242.74;109567;1260;23240;-35
2023/07/20 01:59:51;;;;;;;;;17.00;17.00;;;;;23.23;51.04;100239.33;109581;1254;19580;-34
2023/07/20 02:02:20;;;;;;;;;15.00;15.00;;;;;23.19;51.08;100237.36;109571;1253;20033;-36
2023/07/20 02:04:48;;;;;;;;;17.00;17.00;;;;;23.17;51.13;100238.39;109572;1253;18560;-35
2023/07/20 02:07:15;;;;;;;;;17.50;17.00;;;;;23.22;50.61;100243.05;109572;1269;21872;-35
2023/07/20 02:09:42;;;;;;;;;19.00;18.00;;;;;23.15;50.80;100247.88;109607;1263;19930;-36
2023/07/20 02:12:10;;;;;;;;;17.00;17.00;;;;;23.11;50.60;100244.05;109487;1253;18568;-36
2023/07/20 02:14:37;;;;;;;;;18.00;17.00;;;;;23.10;50.82;100248.39;109571;1254;20847;-36
2023/07/20 02:17:04;;;;;;;;;20.00;20.00;;;;;23.09;50.85;100252.06;109681;1268;19898;-35
2023/07/20 02:19:32;;;;;;;;;22.00;21.50;;;;;23.03;50.98;100250.73;109602;1253;20069;-35
2023/07/20 02:21:59;;;;;;;;;18.00;18.00;;;;;22.94;51.13;100260.65;109608;1268;19035;-36
2023/07/20 02:24:27;;;;;;;;;18.00;18.00;;;;;22.98;51.06;100262.29;109585;1254;20066;-36
2023/07/20 02:26:54;;;;;;;;;23.00;20.50;;;;;22.95;50.92;100260.31;109544;1268;18569;-37
2023/07/20 02:29:22;;;;;;;;;22.50;22.00;;;;;22.95;51.14;100260.21;109599;1261;19954;-36
2023/07/20 02:31:49;;;;;;;;;24.50;18.00;;;;;22.97;51.09;100260.79;109605;1254;20092;-35
2023/07/20 02:34:17;;;;;;;;;17.00;17.00;;;;;22.94;50.92;100262.85;109572;1268;19221;-36
2023/07/20 02:36:46;;;;;;;;;22.00;21.00;;;;;22.90;51.04;100259.18;109574;1263;19558;-36
2023/07/20 02:39:13;;;;;;;;;24.00;21.50;;;;;22.84;51.15;100253.77;109577;1269;18709;-36
2023/07/20 02:41:41;;;;;;;;;21.00;21.00;;;;;22.82;51.32;100251.01;109594;1262;19838;-36
2023/07/20 02:44:08;;;;;;;;;24.00;21.00;;;;;22.80;51.30;100245.51;109604;1256;22008;-36
2023/07/20 02:46:36;;;;;;;;;21.00;19.00;;;;;22.79;51.04;100243.23;109611;1268;18598;-36
2023/07/20 02:49:04;;;;;;;;;21.00;21.00;;;;;22.74;51.40;100246.56;109578;1254;21974;-36
2023/07/20 02:51:31;;;;;;;;;17.00;17.00;;;;;22.66;51.68;100253.67;109666;1268;18126;-36
2023/07/20 02:53:58;;;;;;;;;17.00;17.00;;;;;22.71;51.41;100264.35;109663;1253;19932;-35
2023/07/20 02:56:26;;;;;;;;;24.00;21.33;;;;;22.73;51.35;100255.58;109573;1265;20050;-35
2023/07/20 02:58:53;;;;;;;;;24.00;21.50;;;;;22.74;51.37;100251.32;109571;1268;18174;-36
2023/07/20 03:01:21;;;;;;;;;18.00;18.00;;;;;22.69;51.82;100245.48;109574;1268;21498;-36
2023/07/20 03:03:49;;;;;;;;;27.00;25.00;;;;;22.75;51.50;100237.16;109596;1254;20083;-36
2023/07/20 03:06:17;;;;;;;;;21.00;21.00;;;;;22.76;51.49;100237.68;109619;1254;19519;-36
2023/07/20 03:08:47;;;;;;;;;24.00;20.00;;;;;22.77;51.44;100244.23;109607;1253;21183;-36
2023/07/20 03:11:15;;;;;;;;;21.00;20.00;;;;;22.79;51.46;100245.13;109576;1254;20945;-36
2023/07/20 03:13:42;;;;;;;;;22.00;19.00;;;;;22.75;51.57;100245.30;109580;1254;22061;-36
2023/07/20 03:16:11;;;;;;;;;20.50;19.50;;;;;22.80;51.43;100247.74;109607;1253;18560;-35
2023/07/20 03:18:39;;;;;;;;;18.00;17.00;;;;;22.80;51.41;100252.61;109689;1255;20055;-36
2023/07/20 03:21:06;;;;;;;;;22.00;20.00;;;;;22.80;51.53;100254.24;109714;1253;22214;-34
2023/07/20 03:23:34;;;;;;;;;22.00;20.00;;;;;22.78;51.26;100256.06;109649;1253;21904;-37
2023/07/20 03:26:01;;;;;;;;;21.00;20.00;;;;;22.80;51.41;100254.36;109590;1262;18606;-36
2023/07/20 03:28:29;;;;;;;;;20.00;18.00;;;;;22.76;51.27;100257.52;109599;1253;19829;-37
2023/07/20 03:30:56;;;;;;;;;20.00;18.00;;;;;22.75;51.41;100255.52;109606;1260;20022;-37
2023/07/20 03:33:23;;;;;;;;;20.00;18.50;;;;;22.74;51.49;100260.42;109610;1254;20065;-37
2023/07/20 03:35:51;;;;;;;;;19.50;18.00;;;;;22.77;51.34;100262.95;109606;1253;19084;-37
2023/07/20 03:38:18;;;;;;;;;20.00;20.00;;;;;22.78;51.41;100265.73;109614;1254;20000;-36
2023/07/20 03:40:46;;;;;;;;;21.00;21.00;;;;;22.78;51.50;100258.41;109580;1254;20006;-36
2023/07/20 03:43:13;;;;;;;;;18.00;17.50;;;;;22.77;51.26;100260.45;109592;1268;18099;-37
2023/07/20 03:45:40;;;;;;;;;20.00;20.00;;;;;22.81;51.24;100255.61;109684;1253;19904;-33
2023/07/20 03:48:08;;;;;;;;;25.00;24.00;;;;;22.84;51.47;100256.98;109635;1256;20010;-35
2023/07/20 03:50:35;;;;;;;;;25.33;24.00;;;;;22.84;51.23;100256.44;109609;1254;19584;-35
2023/07/20 03:53:03;;;;;;;;;26.00;22.00;;;;;22.82;51.57;100255.11;109619;1261;22003;-36
2023/07/20 03:55:30;;;;;;;;;21.00;18.00;;;;;22.82;51.39;100258.27;109529;1253;19922;-36
2023/07/20 03:57:58;;;;;;;;;24.00;21.00;;;;;22.81;51.71;100265.38;109593;1268;18151;-36
2023/07/20 04:00:25;;;;;;;;;23.00;22.00;;;;;22.78;51.73;100269.23;109572;1253;20104;-36
2023/07/20 04:02:53;;;;;;;;;24.00;20.00;;;;;22.78;51.84;100267.48;109591;1268;19956;-35
2023/07/20 04:05:20;;;;;;;;;18.00;18.00;;;;;22.81;51.76;100261.84;109589;1268;18436;-36
2023/07/20 04:07:48;;;;;;;;;19.67;18.00;;;;;22.79;51.84;100258.80;109520;1254;21040;-35
2023/07/20 04:10:15;;;;;;;;;25.00;22.00;;;;;22.82;51.66;100263.56;109564;1268;20127;-36
2023/07/20 04:12:43;;;;;;;;;24.67;22.00;;;;;22.84;51.67;100262.77;109559;1268;19428;-36
2023/07/20 04:15:10;;;;;;;;;22.00;21.00;;;;;22.85;51.53;100260.85;109600;1254;20198;-36
2023/07/20 04:17:38;;;;;;;;;16.00;16.00;;;;;22.81;51.29;100262.58;109625;1262;19925;-35
2023/07/20 04:20:06;;;;;;;;;14.00;14.00;;;;;22.80;51.06;100261.08;109595;1263;19505;-36
2023/07/20 04:22:33;;;;;;;;;17.00;13.50;;;;;22.83;51.01;100259.45;109613;1268;18562;-35
2023/07/20 04:25:00;;;;;;;;;16.33;15.33;;;;;22.84;50.74;100255.83;109632;1254;20077;-36
2023/07/20 04:27:28;;;;;;;;;13.00;13.00;;;;;22.83;50.30;100261.05;109694;1265;19658;-36
2023/07/20 04:29:55;;;;;;;;;17.00;17.00;;;;;22.78;50.48;100265.95;109678;1268;18857;-36
2023/07/20 04:32:23;;;;;;;;;20.50;17.50;;;;;22.78;50.49;100269.06;109704;1254;20053;-36
2023/07/20 04:34:50;;;;;;;;;20.00;18.00;;;;;22.82;50.21;100259.26;109616;1261;20558;-36
2023/07/20 04:37:18;;;;;;;;;18.00;17.00;;;;;22.81;50.27;100255.64;109614;1253;21096;-36
2023/07/20 04:39:45;;;;;;;;;16.50;16.00;;;;;22.76;50.54;100253.86;109691;1268;18587;-35
2023/07/20 04:42:13;;;;;;;;;17.00;16.00;;;;;22.73;50.87;100258.27;109638;1254;19577;-36
2023/07/20 04:44:40;;;;;;;;;20.50;19.00;;;;;22.77;50.54;100257.23;109621;1253;21350;-34
2023/07/20 04:47:08;;;;;;;;;22.00;17.50;;;;;22.78;50.67;100259.67;109665;1254;20080;-35
2023/07/20 04:49:35;;;;;;;;;20.50;18.00;;;;;22.76;50.50;100260.84;109672;1268;18117;-35
2023/07/20 04:52:03;;;;;;;;;17.00;17.00;;;;;22.73;50.77;100261.70;109588;1269;21329;-36
2023/07/20 04:54:31;;;;;;;;;17.00;14.00;;;;;22.72;50.58;100262.05;109373;1254;21615;-35
2023/07/20 04:56:58;;;;;;;;;18.00;16.00;;;;;22.73;50.90;100264.43;109379;1264;19477;-36
2023/07/20 04:59:25;;;;;;;;;16.00;13.50;;;;;22.74;50.92;100265.62;109351;1269;18730;-36
2023/07/20 05:01:53;;;;;;;;;16.00;14.50;;;;;22.73;50.56;100271.25;109389;1269;19512;-36
2023/07/20 05:04:20;;;;;;;;;13.50;13.00;;;;;22.67;50.43;100267.90;109394;1254;22195;-35
2023/07/20 05:06:48;;;;;;;;;15.00;14.00;;;;;22.60;50.56;100273.46;109396;1268;19934;-36
2023/07/20 05:09:15;;;;;;;;;17.00;17.00;;;;;22.58;50.51;100273.48;109627;1268;19975;-36
2023/07/20 05:11:44;;;;;;;;;20.00;17.50;;;;;22.61;50.64;100272.77;109597;1253;19900;-34
2023/07/20 05:14:12;;;;;;;;;15.33;14.00;;;;;22.54;50.92;100277.96;109593;1262;20060;-34
2023/07/20 05:16:39;;;;;;;;;15.50;15.50;;;;;22.60;51.04;100279.95;109681;1253;21856;-34
2023/07/20 05:19:07;;;;;;;;;18.50;15.00;;;;;22.57;51.29;100278.73;109694;1253;18158;-34
2023/07/20 05:21:34;;;;;;;;;17.50;16.00;;;;;22.54;51.98;100273.64;109633;1268;18503;-34
2023/07/20 05:24:01;;;;;;;;;17.00;16.00;;;;;22.58;51.98;100272.40;109628;1254;20009;-36
2023/07/20 05:26:29;;;;;;;;;18.00;17.00;;;;;22.55;52.24;100268.11;109583;1262;19430;-36
2023/07/20 05:28:56;;;;;;;;;24.00;21.00;;;;;22.51;52.79;100267.79;109597;1269;19370;-36
2023/07/20 05:31:24;;;;;;;;;23.00;20.00;;;;;22.44;52.79;100267.02;109522;1255;20028;-35
2023/07/20 05:33:52;;;;;;;;;21.00;18.00;;;;;22.42;53.06;100274.14;109648;1268;18091;-35
2023/07/20 05:36:19;;;;;;;;;20.00;20.00;;;;;22.48;53.35;100276.58;109548;1256;18765;-35
2023/07/20 05:38:47;;;;;;;;;24.00;21.50;;;;;22.49;53.30;100274.59;109641;1254;20084;-35
2023/07/20 05:41:14;;;;;;;;;24.00;21.00;;;;;22.57;53.49;100277.70;109680;1268;18192;-37
2023/07/20 05:43:42;;;;;;;;;21.00;19.50;;;;;22.56;53.52;100277.28;109684;1253;20031;-35
2023/07/20 05:46:09;;;;;;;;;24.00;21.00;;;;;22.64;53.11;100278.04;109621;1260;18646;-35
2023/07/20 05:48:37;;;;;;;;;19.00;17.00;;;;;22.75;52.98;100279.92;109586;1254;19527;-36
2023/07/20 05:51:04;;;;;;;;;21.00;20.00;;;;;22.82;52.45;100278.09;109607;1269;19264;-35
2023/07/20 05:53:32;;;;;;;;;20.00;18.00;;;;;22.79;52.80;100275.84;109579;1263;19963;-36
2023/07/20 05:55:59;;;;;;;;;21.00;18.00;;;;;22.76;52.56;100274.44;109361;1263;20512;-36
2023/07/20 05:58:26;;;;;;;;;17.00;14.00;;;;;22.65;52.66;100273.23;109381;1269;18609;-34
2023/07/20 06:00:54;;;;;;;;;17.50;16.50;;;;;22.69;52.26;100275.68;109558;1255;20004;-35
2023/07/20 06:03:22;;;;;;;;;13.00;12.50;;;;;22.70;52.12;100277.41;109625;1269;18072;-36
2023/07/20 06:05:49;;;;;;;;;13.00;12.00;;;;;22.85;52.07;100276.19;109625;1268;18597;-35
2023/07/20 06:08:16;;;;;;;;;13.00;12.50;;;;;23.00;51.17;100270.78;109613;1268;18663;-35
2023/07/20 06:10:44;;;;;;;;;10.50;10.50;;;;;23.10;51.30;100263.70;109584;1254;18143;-35
2023/07/20 06:13:11;;;;;;;;;11.50;10.50;;;;;23.22;50.87;100269.71;109579;1262;19879;-34
2023/07/20 06:15:41;;;;;;;;;90.00;65.50;;;;;23.31;50.62;100271.10;109558;1254;20052;-34
2023/07/20 06:18:08;;;;;;;;;85.50;64.00;;;;;23.37;50.71;100272.48;109688;1254;19599;-33
2023/07/20 06:20:35;;;;;;;;;87.00;63.00;;;;;23.42;50.63;100269.23;109657;1268;18961;-34
2023/07/20 06:23:03;;;;;;;;;92.00;67.00;;;;;23.42;50.41;100275.45;109612;1254;20044;-34
2023/07/20 06:25:30;;;;;;;;;93.00;67.00;;;;;23.45;50.36;100272.78;109566;1253;20874;-34
2023/07/20 06:27:58;;;;;;;;;91.00;67.50;;;;;23.53;50.10;100270.48;109545;1254;20193;-34
2023/07/20 06:30:25;;;;;;;;;98.00;72.00;;;;;23.56;49.84;100267.25;109650;1268;21539;-34
2023/07/20 06:32:52;;;;;;;;;86.00;64.00;;;;;23.56;50.21;100272.72;109625;1254;19531;-35
2023/07/20 06:35:20;;;;;;;;;64.67;51.00;;;;;23.45;50.59;100280.92;109569;1254;19874;-35
2023/07/20 06:37:48;;;;;;;;;63.00;47.00;;;;;23.39;50.66;100279.89;109617;1262;19954;-35
2023/07/20 06:40:15;;;;;;;;;37.00;31.00;;;;;23.17;50.98;100283.41;109596;1268;18152;-35
2023/07/20 06:42:43;;;;;;;;;;;;;;;22.67;52.28;100286.14;109586;1254;20180;-36
2023/07/20 06:45:10;;;;;;;;;24.00;22.50;;;;;22.32;52.96;100287.45;109585;1263;20059;-36
2023/07/20 06:47:38;;;;;;;;;19.00;18.50;;;;;22.32;53.26;100289.86;109614;1262;19467;-35
2023/07/20 06:50:05;;;;;;;;;23.00;22.50;;;;;22.37;53.10;100290.25;109593;1268;19955;-35
2023/07/20 06:52:33;;;;;;;;;22.50;20.00;;;;;22.19;53.84;100293.58;109516;1268;20145;-35
2023/07/20 06:55:00;;;;;;;;;20.50;20.00;;;;;22.06;53.81;100296.39;109463;1262;19492;-35
2023/07/20 06:57:28;;;;;;;;;21.00;19.00;;;;;22.03;53.54;100294.30;109350;1254;19997;-33
2023/07/20 06:59:55;;;;;;;;;18.00;18.00;;;;;21.93;53.72;100296.34;109354;1263;21379;-35
2023/07/20 07:02:22;;;;;;;;;15.50;14.00;;;;;21.91;53.45;100296.52;109374;1255;19570;-35
2023/07/20 07:04:50;;;;;;;;;15.00;15.00;;;;;22.15;53.02;100293.52;109363;1256;22031;-36
2023/07/20 07:07:17;;;;;;;;;14.00;13.00;;;;;22.31;52.21;100293.20;109362;1256;20064;-36
2023/07/20 07:09:44;;;;;;;;;11.00;11.00;;;;;22.42;52.01;100294.81;109355;1269;18148;-35
2023/07/20 07:12:12;;;;;;;;;14.00;12.00;;;;;22.69;51.57;100293.92;109372;1255;20024;-35
2023/07/20 07:14:40;;;;;;;;;12.50;12.50;;;;;22.78;51.46;100292.77;109401;1256;23308;-35
2023/07/20 07:17:07;;;;;;;;;13.00;13.00;;;;;22.85;51.10;100290.99;109398;1254;19597;-37
2023/07/20 07:19:36;;;;;;;;;16.00;13.00;;;;;22.85;50.86;100296.08;109370;1269;19877;-35
2023/07/20 07:22:03;;;;;;;;;13.50;13.00;;;;;22.89;50.89;100296.08;109402;1263;19894;-36
2023/07/20 07:24:33;;;;;;;;;13.00;12.00;;;;;22.91;50.91;100292.11;109388;1269;21939;-36
2023/07/20 07:27:01;;;;;;;;;12.50;12.00;;;;;22.82;51.21;100298.45;109401;1256;20285;-36
2023/07/20 07:29:28;;;;;;;;;12.00;10.00;;;;;22.76;51.08;100298.58;109351;1256;21190;-35
2023/07/20 07:31:55;;;;;;;;;12.00;12.00;;;;;22.78;50.58;100293.75;109387;1256;19579;-36
2023/07/20 07:34:23;;;;;;;;;14.00;13.00;;;;;22.77;50.78;100293.21;109360;1256;22259;-36
2023/07/20 07:36:51;;;;;;;;;16.00;13.00;;;;;22.81;50.67;100290.02;109386;1256;20406;-36
2023/07/20 07:39:18;;;;;;;;;13.00;12.00;;;;;22.77;50.82;100292.46;109410;1256;19535;-36
2023/07/20 07:41:45;;;;;;;;;13.00;12.00;;;;;22.69;51.36;100294.30;109375;1269;18614;-37
2023/07/20 07:44:13;;;;;;;;;13.00;13.00;;;;;22.78;50.95;100294.84;109396;1262;20016;-35
2023/07/20 07:46:41;;;;;;;;;12.00;12.00;;;;;22.84;51.13;100298.55;109541;1256;19639;-35
2023/07/20 07:49:09;;;;;;;;;16.50;15.00;;;;;22.85;51.08;100299.18;109570;1254;19984;-36
2023/07/20 07:51:36;;;;;;;;;12.33;11.33;;;;;22.82;51.39;100301.09;109619;1268;20947;-36
2023/07/20 07:54:04;;;;;;;;;12.00;12.00;;;;;22.82;51.17;100298.63;109602;1254;19580;-36
2023/07/20 07:56:31;;;;;;;;;12.00;10.00;;;;;22.78;51.30;100301.56;109606;1255;18716;-34
2023/07/20 07:58:59;;;;;;;;;14.00;14.00;;;;;22.64;51.83;100304.42;109613;1254;20014;-35
2023/07/20 08:01:26;;;;;;;;;12.00;12.00;;;;;22.78;51.80;100302.33;109601;1253;18200;-35
2023/07/20 08:03:53;;;;;;;;;12.00;12.00;;;;;22.85;51.83;100304.20;109598;1268;18601;-36
2023/07/20 08:06:21;;;;;;;;;12.00;12.00;;;;;22.94;51.69;100305.77;109595;1260;20033;-35
2023/07/20 08:08:48;;;;;;;;;10.00;10.00;;;;;23.00;51.83;100305.26;109585;1268;18161;-36
2023/07/20 08:11:16;;;;;;;;;13.50;13.00;;;;;23.07;51.94;100303.95;109639;1268;19948;-37
2023/07/20 08:13:43;;;;;;;;;13.00;13.00;;;;;23.11;51.89;100300.45;109573;1254;20004;-36
2023/07/20 08:16:11;;;;;;;;;13.67;13.67;;;;;23.12;52.28;100304.85;109587;1268;22185;-35
2023/07/20 08:18:38;;;;;;;;;13.00;13.00;;;;;23.10;52.13;100301.00;109636;1261;18604;-35
2023/07/20 08:21:06;;;;;;;;;13.00;11.00;;;;;23.06;52.24;100299.92;109584;1254;20066;-36
2023/07/20 08:23:33;;;;;;;;;14.00;13.00;;;;;23.15;51.89;100297.70;109570;1268;19728;-35
2023/07/20 08:26:01;;;;;;;;;11.50;10.00;;;;;23.22;51.08;100298.80;109585;1254;21949;-35
2023/07/20 08:28:29;;;;;;;;;14.00;14.00;;;;;23.25;50.59;100294.70;109627;1254;20106;-35
2023/07/20 08:30:56;;;;;;;;;11.00;11.00;;;;;23.28;49.70;100294.34;109573;1268;18135;-35
2023/07/20 08:33:24;;;;;;;;;15.00;14.00;;;;;23.30;49.33;100294.96;109602;1262;20154;-36
2023/07/20 08:35:51;;;;;;;;;11.50;11.50;;;;;23.36;49.08;100297.42;109584;1254;20034;-36
2023/07/20 08:38:19;;;;;;;;;15.00;14.00;;;;;23.43;48.36;100290.09;109562;1268;18170;-36
2023/07/20 08:40:47;;;;;;;;;18.00;17.00;;;;;23.42;48.64;100286.17;109566;1255;20047;-35
2023/07/20 08:43:16;;;;;;;;;14.00;13.50;;;;;23.48;49.19;100289.77;109606;1254;20089;-35
2023/07/20 08:45:43;;;;;;;;;19.00;14.00;;;;;23.54;48.90;100293.30;109626;1254;19633;-36
2023/07/20 08:48:11;;;;;;;;;14.00;13.00;;;;;23.55;48.41;100291.33;109637;1262;21917;-35
2023/07/20 08:50:39;;;;;;;;;10.00;9.50;;;;;23.49;47.82;100289.55;109688;1254;20026;-35
2023/07/20 08:53:06;;;;;;;;;9.00;9.00;;;;;23.46;47.49;100282.55;109692;1254;19478;-35
2023/07/20 08:55:34;;;;;;;;;11.00;11.00;;;;;23.47;47.37;100280.67;109547;1254;20003;-34
2023/07/20 08:58:01;;;;;;;;;10.00;9.50;;;;;23.42;47.59;100278.30;109441;1254;19698;-36
2023/07/20 09:00:29;;;;;;;;;11.00;10.00;;;;;23.41;47.42;100280.28;109427;1254;22113;-35
2023/07/20 09:02:56;;;;;;;;;13.00;11.00;;;;;23.36;47.54;100276.00;109519;1254;19946;-35
2023/07/20 09:05:24;;;;;;;;;10.00;10.00;;;;;23.41;47.43;100270.73;109439;1269;19282;-34
2023/07/20 09:07:51;;;;;;;;;10.50;10.00;;;;;23.43;47.33;100280.02;109402;1256;19611;-35
2023/07/20 09:10:19;;;;;;;;;10.00;9.00;;;;;23.51;47.44;100280.61;109432;1262;22130;-34
2023/07/20 09:12:46;;;;;;;;;13.00;11.00;;;;;23.47;47.56;100278.11;109445;1254;20039;-34
2023/07/20 09:15:14;;;;;;;;;9.50;9.00;;;;;23.49;47.25;100276.80;109386;1254;22080;-36
2023/07/20 09:17:41;;;;;;;;;9.00;9.00;;;;;23.47;46.91;100273.52;109372;1254;19952;-35
2023/07/20 09:20:10;;;;;;;;;9.00;7.00;;;;;23.48;46.59;100273.77;109431;1254;19629;-36
2023/07/20 09:22:39;;;;;;;;;9.00;9.00;;;;;23.51;46.05;100272.84;109441;1254;19342;-35
2023/07/20 09:25:06;;;;;;;;;9.00;9.00;;;;;23.45;45.95;100273.61;109405;1254;20006;-35
2023/07/20 09:27:34;;;;;;;;;10.00;9.00;;;;;23.51;45.86;100279.90;109400;1269;19240;-36
2023/07/20 09:30:01;;;;;;;;;11.00;10.00;;;;;23.56;45.46;100276.98;109356;1269;19680;-36
2023/07/20 09:32:29;;;;;;;;;12.00;10.50;;;;;23.59;44.73;100273.98;109419;1254;19952;-36
2023/07/20 09:34:56;;;;;;;;;10.50;9.50;;;;;23.66;44.50;100279.16;109610;1268;18607;-35
2023/07/20 09:37:24;;;;;;;;;13.00;13.00;;;;;23.61;44.79;100274.13;109369;1261;19418;-36
2023/07/20 09:39:51;;;;;;;;;10.00;8.00;;;;;23.62;44.60;100275.91;109644;1268;21710;-35
2023/07/20 09:42:20;;;;;;;;;13.00;10.00;;;;;23.56;44.64;100276.70;109691;1253;20198;-35
2023/07/20 09:44:47;;;;;;;;;10.00;9.00;;;;;23.66;44.33;100275.91;109683;1254;20911;-35
2023/07/20 09:47:15;;;;;;;;;7.00;7.00;;;;;23.64;44.25;100273.56;109666;1254;21372;-35
2023/07/20 09:49:42;;;;;;;;;10.33;9.67;;;;;23.66;44.20;100273.16;109678;1253;19968;-36
2023/07/20 09:52:10;;;;;;;;;11.00;11.00;;;;;23.56;44.47;100273.17;109686;1268;18084;-36
2023/07/20 09:54:37;;;;;;;;;9.50;9.50;;;;;23.65;44.46;100264.92;109641;1262;18645;-35
2023/07/20 09:57:05;;;;;;;;;17.00;17.00;;;;;23.68;44.17;100261.20;109413;1269;20316;-35
2023/07/20 09:59:32;;;;;;;;;14.00;14.00;;;;;23.68;44.25;100259.73;109426;1264;19384;-36
2023/07/20 10:02:00;;;;;;;;;13.00;13.00;;;;;23.69;44.04;100264.50;109368;1254;18547;-36
2023/07/20 10:04:27;;;;;;;;;;;;;;;23.75;44.11;100264.25;109381;1269;18949;-36
2023/07/20 10:06:55;;;;;;;;;10.00;10.00;;;;;23.80;44.14;100267.58;109441;1256;18965;-36
2023/07/20 10:09:23;;;;;;;;;18.00;18.00;;;;;23.81;44.17;100267.20;109392;1256;20072;-36
2023/07/20 10:11:50;;;;;;;;;;;;;;;23.83;43.57;100266.98;109340;1255;21703;-36
2023/07/20 10:14:17;;;;;;;;;17.00;16.00;;;;;23.81;43.51;100260.90;109412;1256;18923;-36
2023/07/20 10:16:48;;;;;;;;;13.50;11.50;;;;;23.80;43.37;100258.63;109391;1254;19933;-36
2023/07/20 10:19:15;;;;;;;;;10.00;10.00;;;;;23.80;43.57;100259.71;109431;1269;18643;-36
2023/07/20 10:21:42;;;;;;;;;11.00;10.00;;;;;23.81;43.47;100257.02;109391;1269;19373;-35
2023/07/20 10:24:11;;;;;;;;;9.00;9.00;;;;;23.81;43.38;100254.61;109381;1264;20054;-36
2023/07/20 10:26:38;;;;;;;;;9.00;9.00;;;;;23.92;43.41;100258.61;109596;1253;20071;-36
2023/07/20 10:29:06;;;;;;;;;8.50;8.50;;;;;23.97;43.15;100249.86;109570;1253;19261;-36
2023/07/20 10:31:33;;;;;;;;;7.00;7.00;;;;;23.97;43.05;100250.91;109625;1268;20234;-35
2023/07/20 10:34:01;;;;;;;;;9.00;9.00;;;;;23.94;43.02;100244.67;109691;1260;19231;-36
2023/07/20 10:36:28;;;;;;;;;7.00;7.00;;;;;24.03;42.79;100239.46;109622;1268;17940;-36
2023/07/20 10:38:58;;;;;;;;;6.50;6.00;;;;;24.06;42.58;100239.17;109651;1268;18672;-35
2023/07/20 10:41:27;;;;;;;;;7.00;6.00;;;;;24.04;42.49;100233.97;109706;1268;18516;-36
2023/07/20 10:43:55;;;;;;;;;7.67;7.00;;;;;24.09;41.80;100226.59;109590;1268;19249;-36
2023/07/20 10:46:23;;;;;;;;;6.00;6.00;;;;;24.07;41.75;100225.09;109600;1264;21813;-36
2023/07/20 10:48:50;;;;;;;;;5.00;5.00;;;;;24.06;41.67;100223.31;109568;1269;19085;-36
2023/07/20 10:51:18;;;;;;;;;7.00;7.00;;;;;24.06;41.57;100220.64;109651;1268;21571;-35
2023/07/20 10:53:45;;;;;;;;;7.00;7.00;;;;;24.09;41.62;100221.50;109621;1268;19925;-36
2023/07/20 10:56:13;;;;;;;;;7.00;7.00;;;;;24.07;41.61;100215.80;109437;1268;20396;-35
2023/07/20 10:58:41;;;;;;;;;5.33;5.33;;;;;24.03;41.24;100215.71;109377;1269;19145;-35
2023/07/20 11:01:09;;;;;;;;;6.00;6.00;;;;;23.97;41.46;100214.36;109441;1269;19531;-35
2023/07/20 11:03:38;;;;;;;;;5.00;5.00;;;;;24.01;41.22;100216.63;109452;1269;18204;-35
2023/07/20 11:06:06;;;;;;;;;6.00;6.00;;;;;23.98;41.22;100217.58;109375;1254;19271;-36